Time;durP1;ratioP1;P1;durP2;ratioP2;P2;SDS_P1;SDS_P2;PMS_P1;PMS_P2;Temp;Humidity;BMP_temperature;BMP_pressure;BME280_temperature;BME280_humidity;BME280_pressure;Samples;Min_cycle;Max_cycle;Signal;HPM_P1;HPM_P2
2022/10/18 00:00:59;;;;;;;17.65;8.88;;;15.70;99.90;;;;;;4967762;28;20054;-63
2022/10/18 00:03:25;;;;;;;15.95;9.52;;;15.60;99.90;;;;;;4971176;28;20065;-62
2022/10/18 00:05:51;;;;;;;18.70;10.77;;;15.60;99.90;;;;;;4970596;28;20445;-62
2022/10/18 00:08:17;;;;;;;17.55;9.70;;;15.60;99.90;;;;;;4961432;28;20038;-62
2022/10/18 00:10:44;;;;;;;21.25;10.73;;;15.60;99.90;;;;;;4973469;28;20061;-63
2022/10/18 00:13:09;;;;;;;17.80;9.98;;;15.60;99.90;;;;;;4980415;28;20035;-63
2022/10/18 00:15:35;;;;;;;16.23;9.32;;;15.60;99.90;;;;;;4982595;28;20027;-62
2022/10/18 00:18:00;;;;;;;16.30;9.35;;;15.60;99.90;;;;;;4973024;28;20066;-63
2022/10/18 00:20:26;;;;;;;18.45;9.43;;;15.70;99.90;;;;;;4972794;28;20486;-62
2022/10/18 00:22:52;;;;;;;13.75;9.43;;;15.70;99.90;;;;;;4972300;28;20030;-63
2022/10/18 00:25:17;;;;;;;16.08;10.20;;;15.70;99.90;;;;;;4965695;28;20058;-63
2022/10/18 00:27:43;;;;;;;18.15;10.65;;;15.70;99.90;;;;;;4970663;28;20081;-62
2022/10/18 00:30:09;;;;;;;17.08;10.20;;;15.70;99.90;;;;;;4972630;28;20095;-63
2022/10/18 00:32:40;;;;;;;17.27;10.20;;;15.60;99.90;;;;;;4973396;28;20033;-62
2022/10/18 00:35:06;;;;;;;19.15;9.98;;;15.60;99.90;;;;;;4962872;28;20070;-63
2022/10/18 00:37:33;;;;;;;15.88;9.98;;;15.60;99.90;;;;;;4969667;28;20684;-62
2022/10/18 00:39:59;;;;;;;16.27;9.95;;;15.60;99.90;;;;;;4967385;28;20502;-63
2022/10/18 00:42:29;;;;;;;16.38;9.73;;;15.50;99.90;;;;;;4968860;28;20042;-62
2022/10/18 00:45:01;;;;;;;17.25;9.60;;;15.50;99.90;;;;;;4960396;28;20059;-63
2022/10/18 00:47:27;;;;;;;16.25;10.15;;;15.50;99.90;;;;;;4971613;28;20019;-63
2022/10/18 00:49:56;;;;;;;16.25;11.00;;;15.50;99.90;;;;;;4964161;28;20449;-62
2022/10/18 00:52:28;;;;;;;19.30;8.75;;;15.50;99.90;;;;;;4970084;28;20482;-62
2022/10/18 00:54:55;;;;;;;19.27;10.75;;;15.50;99.90;;;;;;4972387;28;20472;-64
2022/10/18 00:57:21;;;;;;;15.95;10.93;;;15.50;99.90;;;;;;4964317;28;20035;-62
2022/10/18 00:59:47;;;;;;;19.88;10.63;;;15.60;99.90;;;;;;4968714;28;20540;-63
2022/10/18 01:02:17;;;;;;;16.52;10.55;;;15.60;99.90;;;;;;4965527;28;20041;-62
2022/10/18 01:04:46;;;;;;;19.70;10.68;;;15.60;99.90;;;;;;4970351;28;20034;-63
2022/10/18 01:07:45;;;;;;;16.55;10.15;;;15.60;99.90;;;;;;4970554;28;20498;-62
2022/10/18 01:10:23;;;;;;;17.10;9.90;;;15.50;99.90;;;;;;4966695;28;20113;-62
2022/10/18 01:13:19;;;;;;;17.90;9.98;;;15.60;99.90;;;;;;4976751;28;20025;-62
2022/10/18 01:16:17;;;;;;;20.98;10.85;;;15.60;99.90;;;;;;4970478;28;20398;-63
2022/10/18 01:19:12;;;;;;;17.20;10.82;;;15.50;99.90;;;;;;4963157;28;20537;-63
2022/10/18 01:22:18;;;;;;;19.63;10.70;;;15.50;99.90;;;;;;4973082;28;20066;-63
2022/10/18 01:25:21;;;;;;;19.80;10.10;;;15.50;99.90;;;;;;4955369;28;20042;-63
2022/10/18 01:28:17;;;;;;;21.27;10.50;;;15.50;99.90;;;;;;4970979;28;20022;-62
2022/10/18 01:30:56;;;;;;;20.27;11.05;;;15.50;99.90;;;;;;4970066;28;20446;-62
2022/10/18 01:33:28;;;;;;;18.38;10.98;;;15.50;99.90;;;;;;4967115;28;20027;-63
2022/10/18 01:36:26;;;;;;;21.63;11.55;;;15.50;99.90;;;;;;4969058;28;20433;-63
2022/10/18 01:38:55;;;;;;;19.17;9.57;;;15.50;99.90;;;;;;4969648;28;20047;-63
2022/10/18 01:41:23;;;;;;;26.00;12.70;;;15.50;99.90;;;;;;4969844;28;20027;-62
2022/10/18 01:43:54;;;;;;;23.63;11.52;;;15.50;99.90;;;;;;4974745;28;20034;-62
2022/10/18 01:46:23;;;;;;;28.65;12.00;;;15.50;99.90;;;;;;4965650;28;20027;-62
2022/10/18 01:48:50;;;;;;;25.80;13.45;;;15.50;99.90;;;;;;4962255;28;20023;-62
2022/10/18 01:51:24;;;;;;;31.27;12.82;;;15.60;99.90;;;;;;4971013;28;20414;-63
2022/10/18 01:53:50;;;;;;;25.10;11.77;;;15.60;99.90;;;;;;4971869;28;20113;-61
2022/10/18 01:56:23;;;;;;;22.70;11.45;;;15.60;99.90;;;;;;4967192;28;20149;-63
2022/10/18 01:59:32;;;;;;;25.83;12.55;;;15.60;99.90;;;;;;4977565;28;20034;-62
2022/10/18 02:02:15;;;;;;;23.65;11.73;;;15.60;99.90;;;;;;4965255;28;20409;-63
2022/10/18 02:04:54;;;;;;;27.45;12.57;;;15.50;99.90;;;;;;4968098;28;20030;-62
2022/10/18 02:07:38;;;;;;;28.38;12.60;;;15.50;99.90;;;;;;4970251;28;20037;-63
2022/10/18 02:10:23;;;;;;;21.30;10.32;;;15.50;99.90;;;;;;4971985;28;20504;-63
2022/10/18 02:12:51;;;;;;;23.65;10.63;;;15.50;99.90;;;;;;4963664;28;20549;-62
2022/10/18 02:15:21;;;;;;;23.08;9.32;;;15.50;99.90;;;;;;4967092;28;20034;-63
2022/10/18 02:17:47;;;;;;;16.83;8.85;;;15.50;99.90;;;;;;4967323;28;20082;-62
2022/10/18 02:20:16;;;;;;;15.35;8.57;;;15.50;99.90;;;;;;4967763;28;20035;-62
2022/10/18 02:22:44;;;;;;;16.02;8.57;;;15.60;99.90;;;;;;4964615;28;20131;-62
2022/10/18 02:25:16;;;;;;;15.07;8.30;;;15.70;99.90;;;;;;4963893;28;20026;-62
2022/10/18 02:27:41;;;;;;;12.27;7.63;;;15.70;99.90;;;;;;4965634;28;20114;-63
2022/10/18 02:30:08;;;;;;;16.40;8.20;;;15.70;99.90;;;;;;4964699;28;20382;-62
2022/10/18 02:32:40;;;;;;;16.15;8.98;;;15.60;99.90;;;;;;4972128;28;20022;-62
2022/10/18 02:35:32;;;;;;;13.73;7.18;;;15.60;99.90;;;;;;4971454;28;20031;-63
2022/10/18 02:37:58;;;;;;;14.25;8.15;;;15.50;99.90;;;;;;4977496;28;20549;-62
2022/10/18 02:40:25;;;;;;;18.92;9.38;;;15.50;99.90;;;;;;4967174;28;20035;-62
2022/10/18 02:42:55;;;;;;;19.13;9.57;;;15.50;99.90;;;;;;4972508;28;20552;-62
2022/10/18 02:45:20;;;;;;;13.88;9.18;;;15.50;99.90;;;;;;4971744;28;20085;-63
2022/10/18 02:47:46;;;;;;;15.50;8.40;;;15.50;99.90;;;;;;4965588;28;20035;-62
2022/10/18 02:50:13;;;;;;;15.95;8.75;;;15.50;99.90;;;;;;4970546;28;20042;-62
2022/10/18 02:52:38;;;;;;;14.63;9.00;;;15.60;99.90;;;;;;4964552;28;20027;-62
2022/10/18 02:55:05;;;;;;;14.50;9.10;;;15.50;99.90;;;;;;4969405;28;20078;-62
2022/10/18 02:57:31;;;;;;;18.65;8.82;;;15.50;99.90;;;;;;4969194;28;20031;-63
2022/10/18 02:59:56;;;;;;;14.07;8.52;;;15.50;99.90;;;;;;4972751;28;20101;-63
2022/10/18 03:02:22;;;;;;;11.77;7.95;;;15.60;99.90;;;;;;4970515;28;20101;-62
2022/10/18 03:04:47;;;;;;;11.98;7.55;;;15.50;99.90;;;;;;4970668;28;20030;-63
2022/10/18 03:07:13;;;;;;;11.93;7.47;;;15.50;99.90;;;;;;4978050;28;20065;-63
2022/10/18 03:09:38;;;;;;;13.45;7.35;;;15.50;99.90;;;;;;4976018;28;20398;-62
2022/10/18 03:12:04;;;;;;;13.27;7.45;;;15.50;99.90;;;;;;4977904;28;20092;-63
2022/10/18 03:14:30;;;;;;;15.73;7.95;;;15.50;99.90;;;;;;5000721;28;20034;-63
2022/10/18 03:16:56;;;;;;;12.18;7.50;;;15.40;99.90;;;;;;4965144;28;20035;-63
2022/10/18 03:19:21;;;;;;;11.57;7.07;;;15.40;99.90;;;;;;4967126;28;20035;-63
2022/10/18 03:21:47;;;;;;;12.45;6.50;;;15.40;99.90;;;;;;4970305;28;20518;-63
2022/10/18 03:24:13;;;;;;;10.05;5.85;;;15.40;99.90;;;;;;4971878;28;20486;-63
2022/10/18 03:26:38;;;;;;;11.90;6.32;;;15.40;99.90;;;;;;4971430;28;20026;-63
2022/10/18 03:29:04;;;;;;;10.38;5.57;;;15.40;99.90;;;;;;4962164;28;20105;-63
2022/10/18 03:31:29;;;;;;;10.65;5.93;;;15.40;99.90;;;;;;4970789;28;20031;-63
2022/10/18 03:33:55;;;;;;;6.53;4.85;;;15.40;99.90;;;;;;4961977;28;20026;-63
2022/10/18 03:36:21;;;;;;;8.55;5.53;;;15.30;99.90;;;;;;4968121;28;20031;-62
2022/10/18 03:38:46;;;;;;;9.90;5.38;;;15.40;99.90;;;;;;4979795;28;20043;-62
2022/10/18 03:41:12;;;;;;;8.43;5.85;;;15.30;99.90;;;;;;4968868;28;20030;-63
2022/10/18 03:43:37;;;;;;;8.25;5.45;;;15.30;99.90;;;;;;4970738;28;20027;-63
2022/10/18 03:46:03;;;;;;;8.88;5.55;;;15.30;99.90;;;;;;4966589;28;20058;-64
2022/10/18 03:48:29;;;;;;;8.77;5.78;;;15.30;99.90;;;;;;4967254;28;20019;-62
2022/10/18 03:50:54;;;;;;;11.75;6.18;;;15.30;99.90;;;;;;4969336;28;20418;-63
2022/10/18 03:53:20;;;;;;;9.07;6.10;;;15.30;99.90;;;;;;4970041;28;20037;-63
2022/10/18 03:55:53;;;;;;;19.83;6.78;;;15.30;99.90;;;;;;4969055;28;20031;-64
2022/10/18 03:58:20;;;;;;;9.50;5.88;;;15.30;99.90;;;;;;4970004;28;20474;-64
2022/10/18 04:00:49;;;;;;;9.13;5.55;;;15.20;99.90;;;;;;4969367;28;20039;-64
2022/10/18 04:03:15;;;;;;;11.43;7.10;;;15.20;99.90;;;;;;4967686;28;20023;-63
2022/10/18 04:05:41;;;;;;;11.50;7.00;;;15.30;99.90;;;;;;4960162;28;20533;-62
2022/10/18 04:08:07;;;;;;;8.90;6.47;;;15.30;99.90;;;;;;4971723;28;20085;-63
2022/10/18 04:10:32;;;;;;;8.80;5.72;;;15.20;99.90;;;;;;4981362;28;20450;-63
2022/10/18 04:12:58;;;;;;;12.18;5.57;;;15.20;99.90;;;;;;4967982;28;20059;-64
2022/10/18 04:15:23;;;;;;;15.90;6.75;;;15.20;99.90;;;;;;4969405;28;20116;-63
2022/10/18 04:17:49;;;;;;;20.35;6.32;;;15.20;99.90;;;;;;4979666;28;20031;-63
2022/10/18 04:20:15;;;;;;;12.57;6.75;;;15.20;99.90;;;;;;4974004;28;20089;-62
2022/10/18 04:22:40;;;;;;;13.00;6.65;;;15.20;99.90;;;;;;4988420;28;20550;-63
2022/10/18 04:25:06;;;;;;;16.17;7.85;;;15.10;99.90;;;;;;4972873;28;20486;-63
2022/10/18 04:27:32;;;;;;;10.93;6.93;;;15.20;99.90;;;;;;4974285;28;20096;-63
2022/10/18 04:29:57;;;;;;;13.98;7.93;;;15.20;99.90;;;;;;4974532;28;20482;-63
2022/10/18 04:32:23;;;;;;;12.00;6.88;;;15.20;99.90;;;;;;4973582;28;20030;-63
2022/10/18 04:34:48;;;;;;;28.23;6.72;;;15.30;99.90;;;;;;4971418;28;20027;-64
2022/10/18 04:37:14;;;;;;;29.85;6.93;;;15.30;99.90;;;;;;4966916;28;20031;-63
2022/10/18 04:39:40;;;;;;;44.35;6.45;;;15.30;99.90;;;;;;4971251;28;20227;-63
2022/10/18 04:42:05;;;;;;;19.58;6.78;;;15.30;99.90;;;;;;4964554;28;20042;-62
2022/10/18 04:44:31;;;;;;;27.20;7.05;;;15.30;99.90;;;;;;4971176;28;20023;-62
2022/10/18 04:46:56;;;;;;;15.57;7.85;;;15.20;99.90;;;;;;4978026;28;20030;-63
2022/10/18 04:49:22;;;;;;;10.68;6.40;;;15.10;99.90;;;;;;5028055;22;20063;-66
2022/10/18 04:51:47;;;;;;;13.75;7.35;;;15.10;99.90;;;;;;5040691;28;20404;-64
2022/10/18 04:54:13;;;;;;;14.98;7.95;;;15.00;99.90;;;;;;5043066;28;20112;-65
2022/10/18 04:56:38;;;;;;;14.63;8.45;;;15.00;99.90;;;;;;5044161;28;20037;-64
2022/10/18 04:59:04;;;;;;;19.00;8.75;;;15.00;99.90;;;;;;5045940;28;20468;-64
2022/10/18 05:01:30;;;;;;;15.23;8.13;;;15.00;99.90;;;;;;5023227;28;20132;-65
2022/10/18 05:03:55;;;;;;;17.35;8.63;;;15.00;99.90;;;;;;5026170;28;20575;-65
2022/10/18 05:06:21;;;;;;;17.88;8.70;;;15.00;99.90;;;;;;5030379;28;20029;-64
2022/10/18 05:08:48;;;;;;;16.42;7.75;;;14.90;99.90;;;;;;5029751;28;20025;-64
2022/10/18 05:11:14;;;;;;;17.92;8.98;;;15.00;99.90;;;;;;5027959;28;20051;-63
2022/10/18 05:13:39;;;;;;;19.05;9.07;;;15.00;99.90;;;;;;5025593;28;20512;-65
2022/10/18 05:16:05;;;;;;;18.85;8.68;;;14.90;99.90;;;;;;5026912;28;20040;-63
2022/10/18 05:18:31;;;;;;;19.45;8.90;;;14.90;99.90;;;;;;5021632;28;20559;-64
2022/10/18 05:20:57;;;;;;;19.58;9.07;;;14.90;99.90;;;;;;5025553;28;20086;-65
2022/10/18 05:23:23;;;;;;;17.92;9.02;;;14.90;99.90;;;;;;5023463;28;20057;-64
2022/10/18 05:25:48;;;;;;;23.30;8.95;;;14.90;99.90;;;;;;5023537;28;20022;-64
2022/10/18 05:28:15;;;;;;;19.45;9.18;;;15.00;99.90;;;;;;5029953;28;20029;-63
2022/10/18 05:30:40;;;;;;;15.13;8.18;;;14.90;99.90;;;;;;5017232;28;20040;-63
2022/10/18 05:33:06;;;;;;;16.02;7.80;;;15.00;99.90;;;;;;5020946;28;20562;-65
2022/10/18 05:35:32;;;;;;;19.25;8.50;;;15.00;99.90;;;;;;5022259;28;20025;-64
2022/10/18 05:37:57;;;;;;;14.60;7.43;;;15.00;99.90;;;;;;5020783;28;20026;-64
2022/10/18 05:40:23;;;;;;;17.05;7.38;;;15.00;99.90;;;;;;5040555;28;20500;-63
2022/10/18 05:42:52;;;;;;;16.13;7.82;;;15.00;99.90;;;;;;5020121;28;20028;-64
2022/10/18 05:45:17;;;;;;;13.48;6.78;;;15.00;99.90;;;;;;5025523;28;20079;-64
2022/10/18 05:47:43;;;;;;;14.05;7.75;;;15.00;99.90;;;;;;5026291;28;20029;-63
2022/10/18 05:50:09;;;;;;;13.18;7.18;;;15.00;99.90;;;;;;5020009;28;20396;-64
2022/10/18 05:52:34;;;;;;;11.27;6.28;;;15.00;99.90;;;;;;5020562;28;20465;-64
2022/10/18 05:55:00;;;;;;;12.57;6.78;;;15.00;99.90;;;;;;5027340;28;20036;-64
2022/10/18 05:57:26;;;;;;;15.35;7.22;;;15.00;99.90;;;;;;5030859;28;20104;-64
2022/10/18 05:59:51;;;;;;;14.10;7.38;;;15.00;99.90;;;;;;5024390;28;20037;-65
2022/10/18 06:02:17;;;;;;;18.02;6.57;;;15.00;99.90;;;;;;5025819;28;20301;-66
2022/10/18 06:04:42;;;;;;;13.95;6.72;;;15.00;99.90;;;;;;5019786;28;20029;-64
2022/10/18 06:07:09;;;;;;;12.25;5.43;;;15.00;99.90;;;;;;5028286;28;20025;-64
2022/10/18 06:09:35;;;;;;;11.27;5.78;;;15.00;99.90;;;;;;5019639;28;20583;-65
2022/10/18 06:12:01;;;;;;;8.93;5.47;;;15.00;99.90;;;;;;5024600;28;20029;-64
2022/10/18 06:14:27;;;;;;;9.68;5.30;;;15.00;99.90;;;;;;5027116;28;20564;-63
2022/10/18 06:16:52;;;;;;;11.88;4.75;;;15.00;99.90;;;;;;5030349;28;20124;-63
2022/10/18 06:19:18;;;;;;;8.50;5.03;;;15.00;99.90;;;;;;5028578;28;20499;-64
2022/10/18 06:21:44;;;;;;;8.48;4.85;;;15.00;99.90;;;;;;5020062;28;20558;-63
2022/10/18 06:24:09;;;;;;;8.55;4.85;;;15.00;99.90;;;;;;5016952;28;20101;-64
2022/10/18 06:26:35;;;;;;;9.70;5.57;;;15.00;99.90;;;;;;5027012;28;20022;-64
2022/10/18 06:29:00;;;;;;;15.52;5.53;;;15.00;99.90;;;;;;5020491;28;20033;-64
2022/10/18 06:31:26;;;;;;;9.32;5.75;;;15.00;99.90;;;;;;5023987;28;20029;-63
2022/10/18 06:33:51;;;;;;;8.13;5.05;;;15.00;99.90;;;;;;5025509;28;20029;-65
2022/10/18 06:36:21;;;;;;;10.57;6.03;;;15.00;99.90;;;;;;5029509;28;20060;-66
2022/10/18 06:38:46;;;;;;;14.70;5.30;;;15.00;99.90;;;;;;5016418;28;20393;-64
2022/10/18 06:41:12;;;;;;;10.30;5.20;;;15.00;99.90;;;;;;5028311;28;20033;-65
2022/10/18 06:43:38;;;;;;;6.68;3.92;;;15.00;99.90;;;;;;5019844;28;20041;-65
2022/10/18 06:46:06;;;;;;;8.75;5.13;;;15.10;99.90;;;;;;5021765;28;20378;-67
2022/10/18 06:48:35;;;;;;;8.02;4.93;;;15.00;99.90;;;;;;5018599;28;20429;-67
2022/10/18 06:51:03;;;;;;;8.70;5.32;;;15.10;99.90;;;;;;5018080;28;20492;-65
2022/10/18 06:53:32;;;;;;;7.65;4.93;;;15.10;99.90;;;;;;5020413;28;20021;-66
2022/10/18 06:56:01;;;;;;;10.13;4.72;;;15.10;99.90;;;;;;5002725;28;20032;-67
2022/10/18 06:58:27;;;;;;;8.27;4.70;;;15.10;99.90;;;;;;5018363;28;20100;-66
2022/10/18 07:00:53;;;;;;;6.97;4.50;;;15.20;99.90;;;;;;5018171;28;20029;-66
2022/10/18 07:03:20;;;;;;;12.05;5.13;;;15.20;99.90;;;;;;5020090;28;20455;-66
2022/10/18 07:05:49;;;;;;;9.77;4.88;;;15.20;99.90;;;;;;5025591;28;20383;-65
2022/10/18 07:08:15;;;;;;;6.32;4.43;;;15.20;99.90;;;;;;5024701;28;20025;-64
2022/10/18 07:10:41;;;;;;;9.13;5.07;;;15.30;99.90;;;;;;5017657;28;20045;-64
2022/10/18 07:13:07;;;;;;;9.15;5.20;;;15.30;99.90;;;;;;5019459;28;20754;-63
2022/10/18 07:15:33;;;;;;;9.95;5.55;;;15.40;99.90;;;;;;5025078;28;20854;-63
2022/10/18 07:17:59;;;;;;;9.38;4.95;;;15.30;99.90;;;;;;5024191;28;20033;-63
2022/10/18 07:20:25;;;;;;;7.45;5.38;;;15.40;99.90;;;;;;5014762;28;20034;-64
2022/10/18 07:22:55;;;;;;;7.20;4.72;;;15.40;99.90;;;;;;5015815;28;20029;-62
2022/10/18 07:25:20;;;;;;;6.75;4.82;;;15.50;99.90;;;;;;5015254;28;20018;-64
2022/10/18 07:27:46;;;;;;;4.80;3.35;;;15.50;99.90;;;;;;5016010;28;20103;-64
2022/10/18 07:30:12;;;;;;;7.68;4.40;;;15.60;99.90;;;;;;5025335;28;20024;-63
2022/10/18 07:32:37;;;;;;;5.95;3.83;;;15.60;99.90;;;;;;5026614;28;20447;-63
2022/10/18 07:35:03;;;;;;;8.80;4.40;;;15.60;99.90;;;;;;5025597;28;20083;-63
2022/10/18 07:37:29;;;;;;;13.18;4.38;;;15.70;99.90;;;;;;5025790;28;20101;-63
2022/10/18 07:39:55;;;;;;;5.15;3.58;;;15.70;99.90;;;;;;5013948;28;20708;-63
2022/10/18 07:42:21;;;;;;;5.82;3.50;;;15.80;99.90;;;;;;5021164;28;20029;-66
2022/10/18 07:44:46;;;;;;;6.63;3.65;;;15.90;99.90;;;;;;5018930;28;20022;-64
2022/10/18 07:47:12;;;;;;;8.45;3.95;;;16.00;99.90;;;;;;5022419;28;20025;-65
2022/10/18 07:49:37;;;;;;;4.40;3.22;;;16.00;99.90;;;;;;5022481;28;20458;-65
2022/10/18 07:52:03;;;;;;;4.40;2.97;;;15.90;99.90;;;;;;5021006;28;20026;-65
2022/10/18 07:54:29;;;;;;;8.73;4.45;;;16.00;99.90;;;;;;5021887;28;20080;-65
2022/10/18 07:56:55;;;;;;;7.68;4.10;;;15.90;99.90;;;;;;5024258;28;20484;-64
2022/10/18 07:59:20;;;;;;;5.50;3.35;;;15.90;99.90;;;;;;5017329;28;20173;-62
2022/10/18 08:01:46;;;;;;;7.90;3.42;;;16.00;99.90;;;;;;5024451;28;20382;-65
2022/10/18 08:04:11;;;;;;;4.70;3.00;;;16.00;99.90;;;;;;5022353;28;20109;-64
2022/10/18 08:06:37;;;;;;;9.07;4.90;;;16.10;99.90;;;;;;5028315;28;20029;-63
2022/10/18 08:09:03;;;;;;;10.27;5.78;;;16.10;99.90;;;;;;5021899;28;20060;-63
2022/10/18 08:11:28;;;;;;;9.52;5.95;;;16.10;99.90;;;;;;5017948;28;20540;-64
2022/10/18 08:13:54;;;;;;;10.43;6.13;;;16.20;99.90;;;;;;5023700;28;20108;-63
2022/10/18 08:16:22;;;;;;;10.30;5.40;;;16.30;99.90;;;;;;5027503;28;20022;-64
2022/10/18 08:18:48;;;;;;;9.02;5.32;;;16.40;99.90;;;;;;5020917;28;20484;-64
2022/10/18 08:21:16;;;;;;;11.32;7.32;;;16.50;99.90;;;;;;5022406;28;20083;-63
2022/10/18 08:23:42;;;;;;;8.13;5.35;;;16.60;99.90;;;;;;5013478;28;20497;-64
2022/10/18 08:26:11;;;;;;;10.35;5.30;;;16.70;99.90;;;;;;5012161;28;20247;-64
2022/10/18 08:28:37;;;;;;;7.78;5.22;;;16.80;99.90;;;;;;5017436;28;20022;-62
2022/10/18 08:31:07;;;;;;;7.25;4.78;;;16.90;99.90;;;;;;5023316;28;20033;-62
2022/10/18 08:33:35;;;;;;;10.20;5.35;;;17.10;99.90;;;;;;5029873;28;20094;-65
2022/10/18 08:36:04;;;;;;;8.50;4.80;;;17.40;99.90;;;;;;5036174;28;20082;-63
2022/10/18 08:38:31;;;;;;;8.98;5.80;;;17.50;99.90;;;;;;5019512;28;20108;-64
2022/10/18 08:41:16;;;;;;;9.60;6.28;;;17.60;99.90;;;;;;5017433;28;20022;-63
2022/10/18 08:43:50;;;;;;;10.20;5.68;;;17.70;99.90;;;;;;5020731;28;20037;-62
2022/10/18 08:46:15;;;;;;;6.32;4.45;;;17.80;99.90;;;;;;5030785;28;20107;-63
2022/10/18 08:48:48;;;;;;;6.80;4.72;;;17.80;99.90;;;;;;5023136;28;20114;-63
2022/10/18 08:51:38;;;;;;;5.65;4.22;;;17.80;99.90;;;;;;5027839;28;20099;-63
2022/10/18 08:54:11;;;;;;;8.48;4.00;;;17.80;99.90;;;;;;5025206;28;20029;-65
2022/10/18 08:56:40;;;;;;;8.75;4.88;;;17.80;99.90;;;;;;5022463;28;20323;-64
2022/10/18 08:59:11;;;;;;;15.18;4.68;;;17.80;99.90;;;;;;5023752;28;20032;-63
2022/10/18 09:01:45;;;;;;;9.15;5.32;;;17.80;99.90;;;;;;5021633;28;20040;-65
2022/10/18 09:04:14;;;;;;;8.90;5.47;;;17.90;99.90;;;;;;5012586;28;20102;-66
2022/10/18 09:06:57;;;;;;;12.07;5.25;;;18.00;99.90;;;;;;5026949;28;20030;-68
2022/10/18 09:09:31;;;;;;;9.10;5.32;;;17.90;99.90;;;;;;5015607;28;20396;-67
2022/10/18 09:12:01;;;;;;;;;;;18.00;99.90;;;;;;5016820;28;20030;-65
2022/10/18 09:14:38;;;;;;;10.90;6.60;;;18.00;99.90;;;;;;5029495;28;20000;-65
2022/10/18 09:17:03;;;;;;;11.27;6.55;;;18.10;99.90;;;;;;5027693;28;20029;-65
2022/10/18 09:20:03;;;;;;;11.80;5.97;;;17.90;99.90;;;;;;5015724;28;20137;-66
2022/10/18 09:22:52;;;;;;;11.57;6.72;;;18.10;99.90;;;;;;5018324;28;20409;-63
2022/10/18 09:25:45;;;;;;;12.43;6.60;;;18.10;99.90;;;;;;5023389;28;20025;-66
2022/10/18 09:28:34;;;;;;;11.40;7.00;;;18.20;99.90;;;;;;5024363;28;20480;-66
2022/10/18 09:31:30;;;;;;;14.30;7.55;;;18.10;99.90;;;;;;5022060;28;20041;-68
2022/10/18 09:34:11;;;;;;;16.92;7.32;;;18.20;99.90;;;;;;4975977;28;20226;-66
2022/10/18 09:36:38;;;;;;;11.98;7.40;;;18.20;99.90;;;;;;5025587;28;20042;-67
2022/10/18 09:39:24;;;;;;;16.38;7.20;;;18.30;99.90;;;;;;5019510;28;20018;-66
2022/10/18 09:41:58;;;;;;;12.20;8.15;;;18.40;99.90;;;;;;5024768;28;20022;-66
2022/10/18 09:44:33;;;;;;;11.60;7.25;;;18.30;99.90;;;;;;5019874;28;20036;-66
2022/10/18 09:47:04;;;;;;;13.38;7.88;;;18.40;99.90;;;;;;5016633;28;20013;-65
2022/10/18 09:49:44;;;;;;;14.13;8.88;;;18.30;99.90;;;;;;5024161;28;20033;-65
2022/10/18 09:52:17;;;;;;;17.00;9.05;;;18.10;99.90;;;;;;5023210;28;20125;-66
2022/10/18 09:54:49;;;;;;;18.23;10.40;;;18.00;99.90;;;;;;5023554;28;20049;-65
2022/10/18 09:57:25;;;;;;;16.58;8.30;;;18.10;99.90;;;;;;5028744;28;20084;-64
2022/10/18 09:59:50;;;;;;;18.08;9.45;;;18.10;99.90;;;;;;5020962;28;20022;-67
2022/10/18 10:02:21;;;;;;;17.95;9.73;;;18.10;99.90;;;;;;5028445;28;20057;-67
2022/10/18 10:04:48;;;;;;;16.48;9.43;;;18.10;99.90;;;;;;5018854;28;20071;-65
2022/10/18 10:07:17;;;;;;;16.00;9.10;;;18.10;99.90;;;;;;5020978;28;20022;-66
2022/10/18 10:09:46;;;;;;;17.05;9.75;;;18.10;99.90;;;;;;5016557;28;20389;-65
2022/10/18 10:12:36;;;;;;;18.13;10.27;;;18.10;99.90;;;;;;5012959;28;20037;-66
2022/10/18 10:15:22;;;;;;;21.48;10.88;;;18.30;99.90;;;;;;5009787;28;20109;-65
2022/10/18 10:17:56;;;;;;;20.77;10.77;;;18.20;99.90;;;;;;5017333;28;20030;-67
2022/10/18 10:20:25;;;;;;;21.40;10.57;;;18.20;99.90;;;;;;5017886;28;20026;-67
2022/10/18 10:22:51;;;;;;;18.02;10.10;;;18.20;99.90;;;;;;5019016;28;20050;-64
2022/10/18 10:25:34;;;;;;;19.80;11.50;;;18.20;99.90;;;;;;5011609;28;20099;-65
2022/10/18 10:28:02;;;;;;;20.08;10.75;;;18.10;99.90;;;;;;5025173;28;20083;-65
2022/10/18 10:30:36;;;;;;;20.10;11.20;;;18.20;99.90;;;;;;5025230;28;20030;-68
2022/10/18 10:33:02;;;;;;;15.60;9.38;;;18.30;99.90;;;;;;5016214;28;20485;-67
2022/10/18 10:35:35;;;;;;;17.98;9.85;;;18.40;99.90;;;;;;5024649;28;20103;-67
2022/10/18 10:38:02;;;;;;;20.92;9.90;;;18.50;99.90;;;;;;5016967;28;20492;-67
2022/10/18 10:40:41;;;;;;;19.58;10.70;;;18.60;99.90;;;;;;5024133;28;20516;-66
2022/10/18 10:43:15;;;;;;;18.92;10.30;;;18.60;99.90;;;;;;5022491;28;20025;-67
2022/10/18 10:45:57;;;;;;;17.55;10.02;;;18.70;99.90;;;;;;5020259;28;20030;-68
2022/10/18 10:48:23;;;;;;;16.48;8.85;;;18.70;99.90;;;;;;5025754;28;20052;-65
2022/10/18 10:51:28;;;;;;;22.50;10.75;;;18.70;99.90;;;;;;5020969;28;20505;-67
2022/10/18 10:54:14;;;;;;;22.42;11.68;;;18.20;99.90;;;;;;4998898;28;20140;-65
2022/10/18 10:56:49;;;;;;;22.77;12.13;;;18.20;99.90;;;;;;5020566;28;20054;-68
2022/10/18 10:59:18;;;;;;;23.00;11.95;;;18.10;99.90;;;;;;5016946;28;20373;-66
2022/10/18 11:01:46;;;;;;;25.48;12.68;;;18.10;99.90;;;;;;5026817;28;20036;-65
2022/10/18 11:04:26;;;;;;;22.77;12.35;;;18.10;99.90;;;;;;5020318;28;20025;-67
2022/10/18 11:07:14;;;;;;;23.92;12.70;;;18.10;99.90;;;;;;5014769;28;20025;-66
2022/10/18 11:09:46;;;;;;;28.08;13.43;;;18.30;99.90;;;;;;5019944;28;20022;-67
2022/10/18 11:12:24;;;;;;;20.02;10.90;;;18.40;99.90;;;;;;5018461;28;20093;-66
2022/10/18 11:15:10;;;;;;;22.08;12.10;;;18.30;99.90;;;;;;5022488;28;20112;-66
2022/10/18 11:17:42;;;;;;;18.55;10.50;;;18.30;99.90;;;;;;5022081;28;20025;-65
2022/10/18 11:20:16;;;;;;;21.27;10.75;;;18.40;99.90;;;;;;5027046;28;20029;-67
2022/10/18 11:22:47;;;;;;;26.13;11.63;;;18.40;99.90;;;;;;5023972;28;20036;-67
2022/10/18 11:25:15;;;;;;;18.65;11.20;;;18.30;99.90;;;;;;5028288;28;20120;-68
2022/10/18 11:27:53;;;;;;;18.52;11.43;;;18.40;99.90;;;;;;5029334;28;20018;-65
2022/10/18 11:30:24;;;;;;;23.75;10.88;;;18.50;99.90;;;;;;5027562;28;20033;-67
2022/10/18 11:33:12;;;;;;;22.23;10.57;;;18.50;99.90;;;;;;5031155;28;20026;-67
2022/10/18 11:36:03;;;;;;;22.08;11.68;;;18.30;99.90;;;;;;5026295;28;20120;-66
2022/10/18 11:38:41;;;;;;;18.55;10.65;;;18.30;99.90;;;;;;5029316;28;20117;-65
2022/10/18 11:41:34;;;;;;;33.10;12.70;;;18.30;99.90;;;;;;5017571;28;20026;-65
2022/10/18 11:44:21;;;;;;;28.58;12.48;;;18.20;99.90;;;;;;5025922;28;20013;-65
2022/10/18 11:47:16;;;;;;;22.52;10.60;;;18.40;99.90;;;;;;5005775;28;20060;-66
2022/10/18 11:50:12;;;;;;;29.63;11.52;;;18.40;99.90;;;;;;5012304;28;20029;-66
2022/10/18 11:52:51;;;;;;;17.92;9.93;;;18.70;99.90;;;;;;5028975;28;20512;-65
2022/10/18 11:55:41;;;;;;;19.65;9.43;;;18.90;99.90;;;;;;5030647;28;20116;-66
2022/10/18 11:58:24;;;;;;;16.60;9.38;;;19.00;99.90;;;;;;5019816;28;20585;-65
2022/10/18 12:00:50;;;;;;;18.98;9.60;;;19.40;99.90;;;;;;5029439;28;20021;-67
2022/10/18 12:03:23;;;;;;;17.00;8.93;;;19.50;99.90;;;;;;5025820;28;20040;-67
2022/10/18 12:05:51;;;;;;;14.55;8.65;;;19.50;99.90;;;;;;5022315;28;20030;-67
2022/10/18 12:08:46;;;;;;;15.02;9.13;;;19.30;99.90;;;;;;5024760;28;20036;-66
2022/10/18 12:11:20;;;;;;;14.82;8.82;;;19.30;99.90;;;;;;5024736;28;20025;-66
2022/10/18 12:13:50;;;;;;;15.43;9.27;;;19.10;99.90;;;;;;5019813;28;20037;-67
2022/10/18 12:16:19;;;;;;;17.90;8.95;;;19.00;99.90;;;;;;5023749;28;20075;-65
2022/10/18 12:18:53;;;;;;;15.10;9.45;;;18.80;99.90;;;;;;5023740;28;20444;-65
2022/10/18 12:21:24;;;;;;;18.98;10.07;;;18.80;99.90;;;;;;5021761;28;20030;-66
2022/10/18 12:24:06;;;;;;;22.77;10.23;;;18.60;99.90;;;;;;5020442;28;20060;-67
2022/10/18 12:26:33;;;;;;;18.85;9.57;;;18.60;99.90;;;;;;5027298;28;20025;-66
2022/10/18 12:29:29;;;;;;;17.20;10.70;;;18.50;99.90;;;;;;5022801;28;20029;-68
2022/10/18 12:32:17;;;;;;;20.42;10.93;;;18.30;99.90;;;;;;5027577;28;20112;-66
2022/10/18 12:34:51;;;;;;;20.00;11.82;;;18.20;99.90;;;;;;5024978;28;20108;-66
2022/10/18 12:37:20;;;;;;;24.05;12.48;;;18.00;99.90;;;;;;5024590;28;20025;-65
2022/10/18 12:40:11;;;;;;;22.05;12.55;;;18.00;99.90;;;;;;5016412;28;20040;-67
2022/10/18 12:42:46;;;;;;;23.13;14.15;;;17.90;99.90;;;;;;5011779;28;20022;-66
2022/10/18 12:45:32;;;;;;;33.55;15.65;;;18.10;99.90;;;;;;5018981;28;20034;-66
2022/10/18 12:48:07;;;;;;;27.17;14.27;;;18.00;99.90;;;;;;5030600;28;20025;-66
2022/10/18 12:50:38;;;;;;;27.85;15.07;;;18.00;99.90;;;;;;5026548;28;20095;-66
2022/10/18 12:53:21;;;;;;;29.05;15.48;;;17.90;99.90;;;;;;5025318;28;20389;-65
2022/10/18 12:55:50;;;;;;;34.60;16.63;;;17.90;99.90;;;;;;5018542;28;20088;-66